Terminal Aerodrome Forecast
Issued by NWS Portland, OR

Home | Current Version | Previous Version | Text Only | Print | Product List | Glossary On
Versions: 1 2 3 4 5 6 7 8 9 10 11 12 13 14 15 16 17 18 19 20 21 22 23 24 25 26 27 28 29 30 31 32 33 34 35 36 37 38 39 40 41 42
000
FTUS46 KPQR 232331
TAFEUG
TAF
KEUG 232331Z 2400/2424 18006KT 6SM BR FEW030 SCT050
     FM240700 17004KT 1SM BR BKN004
     FM241700 17005KT 4SM BR BKN007
     FM242000 19008KT P6SM BKN080
     FM242300 19010KT 6SM -RA BKN025 OVC080=

USA.gov is the U.S. government's official web portal to all federal, state and local government web resources and services.